createdAt,value
2018-11-12T00:00:30.568Z,23.53
2018-11-12T00:02:58.685Z,23.20
2018-11-12T00:05:26.005Z,22.83
2018-11-12T00:07:53.312Z,24.47
2018-11-12T00:10:20.634Z,24.43
2018-11-12T00:12:47.887Z,24.23
2018-11-12T00:15:15.199Z,24.40
2018-11-12T00:17:42.582Z,24.80
2018-11-12T00:20:11.419Z,25.23
2018-11-12T00:22:38.723Z,24.73
2018-11-12T00:25:06.180Z,26.07
2018-11-12T00:27:33.450Z,24.27
2018-11-12T00:30:00.687Z,26.03
2018-11-12T00:32:28.150Z,25.53
2018-11-12T00:34:55.389Z,25.90
2018-11-12T00:37:22.629Z,25.07
2018-11-12T00:39:49.996Z,26.97
2018-11-12T00:42:17.277Z,27.23
2018-11-12T00:44:44.512Z,25.20
2018-11-12T00:47:11.823Z,25.43
2018-11-12T00:49:39.107Z,25.80
2018-11-12T00:52:07.002Z,26.90
2018-11-12T00:54:34.463Z,27.70
2018-11-12T00:57:01.907Z,25.30
2018-11-12T00:59:29.184Z,24.70
2018-11-12T01:01:56.566Z,24.20
2018-11-12T01:04:23.799Z,24.23
2018-11-12T01:06:51.107Z,24.83
2018-11-12T01:09:18.375Z,22.53
2018-11-12T01:11:45.648Z,23.90
2018-11-12T01:14:12.900Z,21.93
2018-11-12T01:16:40.233Z,22.03
2018-11-12T01:19:07.526Z,21.03
2018-11-12T01:21:34.796Z,21.67
2018-11-12T01:24:02.208Z,22.30
2018-11-12T01:26:29.461Z,21.10
2018-11-12T01:28:56.719Z,21.60
2018-11-12T01:31:23.987Z,20.60
2018-11-12T01:33:51.215Z,18.67
2018-11-12T01:36:18.453Z,19.77
2018-11-12T01:38:45.798Z,17.33
2018-11-12T01:41:13.056Z,19.17
2018-11-12T01:43:40.287Z,17.00
2018-11-12T01:46:07.634Z,18.03
2018-11-12T01:48:34.851Z,17.00
2018-11-12T01:51:02.115Z,16.30
2018-11-12T01:53:29.539Z,16.30
2018-11-12T01:55:56.758Z,16.67
2018-11-12T01:58:24.002Z,17.17
2018-11-12T02:00:51.363Z,17.67
2018-11-12T02:03:18.575Z,17.33
2018-11-12T02:05:45.823Z,16.43
2018-11-12T02:08:13.179Z,16.17
2018-11-12T02:10:40.425Z,16.77
2018-11-12T02:13:07.654Z,16.50
2018-11-12T02:15:34.903Z,16.90
2018-11-12T02:18:02.197Z,16.43
2018-11-12T02:20:29.415Z,16.67
2018-11-12T02:22:56.848Z,15.13
2018-11-12T02:25:24.070Z,15.93
2018-11-12T02:27:51.298Z,15.67
2018-11-12T02:30:24.336Z,15.17
2018-11-12T02:32:51.610Z,14.57
2018-11-12T02:35:18.848Z,14.73
2018-11-12T02:37:46.290Z,15.23
2018-11-12T02:40:13.602Z,15.83
2018-11-12T02:42:41.654Z,14.37
2018-11-12T02:45:10.179Z,14.87
2018-11-12T02:47:37.754Z,14.43
2018-11-12T02:50:06.041Z,13.43
2018-11-12T02:52:33.315Z,13.93
2018-11-12T02:55:00.700Z,13.57
2018-11-12T02:57:28.013Z,15.03
2018-11-12T02:59:55.323Z,15.87
2018-11-12T03:02:22.599Z,18.00
2018-11-12T03:04:49.874Z,18.20
2018-11-12T03:07:17.248Z,18.80
2018-11-12T03:09:44.501Z,17.73
2018-11-12T03:12:11.799Z,18.10
2018-11-12T03:14:39.351Z,20.53
2018-11-12T03:17:06.606Z,19.27
2018-11-12T03:19:33.902Z,21.23
2018-11-12T03:22:01.193Z,21.30
2018-11-12T03:24:28.458Z,19.97
2018-11-12T03:26:55.675Z,21.03
2018-11-12T03:29:22.946Z,20.30
2018-11-12T03:31:50.211Z,22.27
2018-11-12T03:34:17.457Z,22.33
2018-11-12T03:36:44.832Z,23.20
2018-11-12T03:39:12.147Z,22.87
2018-11-12T03:41:39.394Z,22.23
2018-11-12T03:44:07.319Z,21.63
2018-11-12T03:46:34.581Z,22.00
2018-11-12T03:49:01.871Z,23.87
2018-11-12T03:51:29.228Z,21.07
2018-11-12T03:53:56.484Z,23.37
2018-11-12T03:56:23.754Z,23.57
2018-11-12T03:58:51.102Z,22.17
2018-11-12T04:01:18.356Z,23.63
2018-11-12T04:03:45.616Z,24.10
2018-11-12T04:06:12.881Z,22.37
2018-11-12T04:08:40.127Z,24.47
2018-11-12T04:11:07.363Z,20.73
2018-11-12T04:13:34.695Z,23.60
2018-11-12T04:16:01.954Z,23.13
2018-11-12T04:18:29.222Z,21.10
2018-11-12T04:20:56.561Z,23.57
2018-11-12T04:23:23.778Z,23.20
2018-11-12T04:25:51.035Z,22.53
2018-11-12T04:28:18.352Z,23.67
2018-11-12T04:30:45.585Z,22.60
2018-11-12T04:33:12.820Z,24.17
2018-11-12T04:35:40.167Z,23.30
2018-11-12T04:38:07.401Z,24.33
2018-11-12T04:40:34.681Z,25.60
2018-11-12T04:43:02.099Z,24.87
2018-11-12T04:45:29.409Z,24.40
2018-11-12T04:47:56.582Z,24.80
2018-11-12T04:50:25.232Z,24.50
2018-11-12T04:52:53.071Z,24.80
2018-11-12T04:55:21.134Z,24.87
2018-11-12T04:57:48.496Z,23.87
2018-11-12T05:00:18.084Z,23.67
2018-11-12T05:02:45.363Z,23.43
2018-11-12T05:05:14.175Z,24.10
2018-11-12T05:07:41.803Z,24.13
2018-11-12T05:10:10.920Z,22.77
2018-11-12T05:12:38.915Z,25.20
2018-11-12T05:15:07.677Z,24.97
2018-11-12T05:17:34.929Z,24.83
2018-11-12T05:20:02.320Z,24.90
2018-11-12T05:22:29.556Z,27.03
2018-11-12T05:24:56.819Z,27.27
2018-11-12T05:27:24.188Z,28.00
2018-11-12T05:29:51.430Z,26.97
2018-11-12T05:32:19.409Z,27.97
2018-11-12T05:34:46.979Z,26.70
2018-11-12T05:37:14.206Z,26.53
2018-11-12T05:39:41.511Z,25.13
2018-11-12T05:42:08.777Z,26.27
2018-11-12T05:44:36.058Z,26.97
2018-11-12T05:47:03.387Z,25.27
2018-11-12T05:49:30.672Z,24.83
2018-11-12T05:51:57.958Z,23.57
2018-11-12T05:54:25.191Z,24.00
2018-11-12T05:56:52.542Z,26.53
2018-11-12T05:59:19.792Z,25.07
2018-11-12T06:01:47.037Z,25.97
2018-11-12T06:04:14.501Z,26.37
2018-11-12T06:06:41.737Z,24.83
2018-11-12T06:09:10.231Z,23.97
2018-11-12T06:11:37.632Z,25.43
2018-11-12T06:14:05.039Z,23.20
2018-11-12T06:16:32.309Z,24.60
2018-11-12T06:18:59.715Z,25.23
2018-11-12T06:21:26.941Z,23.67
2018-11-12T06:23:54.330Z,24.83
2018-11-12T06:26:21.731Z,23.57
2018-11-12T06:28:48.976Z,24.77
2018-11-12T06:31:16.236Z,25.20
2018-11-12T06:33:43.592Z,23.90
2018-11-12T06:36:10.850Z,24.67
2018-11-12T06:38:38.112Z,25.53
2018-11-12T06:41:05.426Z,25.10
2018-11-12T06:43:32.651Z,25.63
2018-11-12T06:45:59.902Z,26.00
2018-11-12T06:48:27.227Z,24.47
2018-11-12T06:50:54.507Z,24.57
2018-11-12T06:53:21.871Z,26.13
2018-11-12T06:55:49.262Z,24.63
2018-11-12T06:58:16.544Z,25.33
2018-11-12T07:00:43.889Z,25.93
2018-11-12T07:03:11.256Z,26.17
2018-11-12T07:05:38.553Z,26.13
2018-11-12T07:08:05.887Z,24.80
2018-11-12T07:10:33.254Z,24.73
2018-11-12T07:13:00.682Z,24.30
2018-11-12T07:15:28.476Z,24.17
2018-11-12T07:17:55.951Z,24.53
2018-11-12T07:20:24.107Z,22.97
2018-11-12T07:22:51.685Z,24.20
2018-11-12T07:25:20.633Z,22.93
2018-11-12T07:27:47.942Z,24.10
2018-11-12T07:30:17.639Z,22.87
2018-11-12T07:32:45.545Z,22.93
2018-11-12T07:35:13.805Z,21.90
2018-11-12T07:37:42.071Z,23.47
2018-11-12T07:40:10.279Z,22.07
2018-11-12T07:42:38.334Z,22.23
2018-11-12T07:45:07.226Z,23.37
2018-11-12T07:47:34.623Z,22.30
2018-11-12T07:50:01.898Z,21.57
2018-11-12T07:52:29.235Z,20.83
2018-11-12T07:54:56.620Z,20.40
2018-11-12T07:57:23.960Z,21.43
2018-11-12T07:59:51.212Z,20.17
2018-11-12T08:02:18.634Z,21.63
2018-11-12T08:04:45.907Z,22.17
2018-11-12T08:07:13.197Z,22.60
2018-11-12T08:09:40.665Z,21.77
2018-11-12T08:12:07.890Z,21.03
2018-11-12T08:14:35.205Z,22.80
2018-11-12T08:17:02.730Z,23.77
2018-11-12T08:19:30.014Z,21.53
2018-11-12T08:21:57.296Z,23.17
2018-11-12T08:24:24.848Z,22.40
2018-11-12T08:26:52.048Z,20.27
2018-11-12T08:29:19.297Z,21.40
2018-11-12T08:31:46.731Z,22.37
2018-11-12T08:34:14.336Z,21.13
2018-11-12T08:36:41.717Z,21.93
2018-11-12T08:39:09.064Z,21.97
2018-11-12T08:41:36.280Z,22.47
2018-11-12T08:44:03.609Z,20.73
2018-11-12T08:46:31.036Z,20.97
2018-11-12T08:48:58.401Z,19.63
2018-11-12T08:51:25.674Z,21.53
2018-11-12T08:53:53.137Z,20.93
2018-11-12T08:56:20.479Z,19.63
2018-11-12T08:58:47.754Z,19.67
2018-11-12T09:01:15.160Z,18.60
2018-11-12T09:03:42.409Z,18.60
2018-11-12T09:06:09.668Z,16.10
2018-11-12T09:08:37.078Z,17.77
2018-11-12T09:11:05.216Z,16.20
2018-11-12T09:13:32.444Z,16.13
2018-11-12T09:15:59.879Z,16.17
2018-11-12T09:18:27.159Z,16.70
2018-11-12T09:20:54.435Z,17.10
2018-11-12T09:23:21.835Z,18.20
2018-11-12T09:25:49.115Z,17.07
2018-11-12T09:28:16.363Z,16.87
2018-11-12T09:30:44.499Z,16.13
2018-11-12T09:33:11.056Z,14.93
2018-11-12T09:35:38.315Z,15.77
2018-11-12T09:38:05.621Z,14.77
2018-11-12T09:40:35.130Z,15.50
2018-11-12T09:43:02.474Z,14.47
2018-11-12T09:45:29.855Z,15.27
2018-11-12T09:47:57.200Z,14.43
2018-11-12T09:50:25.378Z,15.80
2018-11-12T09:52:53.790Z,15.67
2018-11-12T09:55:22.176Z,16.90
2018-11-12T09:57:52.163Z,17.20
2018-11-12T10:00:20.017Z,16.50
2018-11-12T10:02:48.718Z,15.90
2018-11-12T10:05:17.228Z,16.57
2018-11-12T10:07:45.702Z,16.63
2018-11-12T10:10:53.258Z,15.70
2018-11-12T10:13:26.215Z,15.00
2018-11-12T10:15:52.265Z,15.07
2018-11-12T10:18:17.062Z,15.13
2018-11-12T10:20:44.497Z,13.23
2018-11-12T10:23:11.787Z,14.83
2018-11-12T10:25:39.050Z,14.50
2018-11-12T10:28:06.423Z,14.60
2018-11-12T10:30:33.750Z,14.43
2018-11-12T10:33:01.131Z,14.70
2018-11-12T10:35:28.616Z,15.37
2018-11-12T10:37:56.060Z,15.73
2018-11-12T10:40:24.100Z,14.20
2018-11-12T10:42:51.627Z,14.80
2018-11-12T10:45:19.004Z,15.17
2018-11-12T10:47:47.344Z,15.53
2018-11-12T10:50:14.967Z,14.87
2018-11-12T10:52:42.250Z,15.37
2018-11-12T10:55:12.536Z,16.23
2018-11-12T10:57:40.355Z,15.43
2018-11-12T11:00:14.961Z,15.97
2018-11-12T11:02:48.088Z,16.00
2018-11-12T11:05:15.347Z,15.07
2018-11-12T11:07:42.636Z,15.50
2018-11-12T11:10:10.039Z,15.40
2018-11-12T11:12:37.316Z,14.97
2018-11-12T11:15:04.813Z,14.57
2018-11-12T11:17:32.191Z,14.73
2018-11-12T11:19:59.463Z,13.80
2018-11-12T11:22:26.718Z,14.17
2018-11-12T11:24:54.111Z,13.87
2018-11-12T11:27:21.374Z,13.53
2018-11-12T11:29:48.646Z,13.87
2018-11-12T11:32:16.019Z,14.83
2018-11-12T11:34:43.288Z,13.73
2018-11-12T11:37:10.583Z,14.43
2018-11-12T11:39:38.012Z,14.10
2018-11-12T11:42:05.392Z,14.57
2018-11-12T11:44:33.330Z,13.27
2018-11-12T11:47:00.710Z,14.40
2018-11-12T11:49:27.978Z,14.37
2018-11-12T11:51:55.293Z,14.00
2018-11-12T11:54:22.723Z,13.23
2018-11-12T11:56:50.127Z,14.10
2018-11-12T11:59:17.271Z,14.20
2018-11-12T12:01:44.711Z,13.83
2018-11-12T12:04:12.011Z,13.03
2018-11-12T12:06:39.336Z,14.53
2018-11-12T12:09:07.261Z,14.47
2018-11-12T12:11:34.502Z,13.93
2018-11-12T12:14:01.814Z,13.73
2018-11-12T12:16:29.171Z,12.50
2018-11-12T12:18:56.451Z,11.93
2018-11-12T12:21:23.709Z,13.03
2018-11-12T12:23:51.131Z,11.67
2018-11-12T12:26:18.495Z,13.60
2018-11-12T12:28:45.749Z,12.13
2018-11-12T12:31:13.416Z,11.40
2018-11-12T12:33:40.676Z,11.63
2018-11-12T12:36:07.989Z,12.10
2018-11-12T12:38:36.131Z,11.77
2018-11-12T12:41:03.433Z,10.63
2018-11-12T12:43:30.679Z,11.73
2018-11-12T12:45:58.122Z,11.67
2018-11-12T12:48:25.324Z,11.80
2018-11-12T12:50:52.596Z,10.67
2018-11-12T12:53:19.966Z,11.17
2018-11-12T12:55:47.429Z,9.77
2018-11-12T12:58:14.556Z,10.77
2018-11-12T13:00:41.985Z,10.80
2018-11-12T13:03:09.256Z,10.27
2018-11-12T13:05:36.583Z,10.60
2018-11-12T13:08:03.980Z,10.03
2018-11-12T13:10:31.223Z,10.73
2018-11-12T13:12:58.528Z,11.40
2018-11-12T13:15:25.903Z,10.63
2018-11-12T13:17:53.172Z,11.53
2018-11-12T13:20:22.007Z,11.47
2018-11-12T13:22:49.437Z,11.40
2018-11-12T13:25:16.884Z,11.53
2018-11-12T13:27:44.758Z,10.97
2018-11-12T13:30:13.718Z,11.27
2018-11-12T13:32:41.667Z,11.07
2018-11-12T13:35:10.523Z,11.17
2018-11-12T13:37:37.968Z,10.40
2018-11-12T13:40:08.127Z,11.33
2018-11-12T13:42:35.384Z,11.30
2018-11-12T13:45:02.826Z,10.73
2018-11-12T13:47:30.109Z,11.33
2018-11-12T13:49:57.358Z,11.00
2018-11-12T13:52:24.738Z,10.60
2018-11-12T13:54:52.063Z,10.00
2018-11-12T13:57:19.352Z,9.57
2018-11-12T13:59:46.742Z,9.97
2018-11-12T14:02:14.005Z,9.43
2018-11-12T14:04:41.247Z,9.60
2018-11-12T14:07:08.543Z,10.23
2018-11-12T14:09:35.801Z,10.27
2018-11-12T14:12:03.060Z,10.03
2018-11-12T14:14:30.492Z,9.67
2018-11-12T14:16:57.727Z,9.10
2018-11-12T14:19:25.052Z,8.93
2018-11-12T14:21:52.523Z,9.47
2018-11-12T14:24:19.843Z,9.70
2018-11-12T14:26:47.078Z,9.70
2018-11-12T14:29:14.354Z,9.23
2018-11-12T14:31:41.582Z,10.57
2018-11-12T14:34:08.828Z,10.37
2018-11-12T14:36:36.191Z,10.10
2018-11-12T14:39:05.356Z,9.77
2018-11-12T14:41:32.599Z,10.30
2018-11-12T14:44:00.025Z,9.67
2018-11-12T14:46:27.264Z,10.13
2018-11-12T14:48:54.502Z,9.97
2018-11-12T14:51:21.852Z,10.80
2018-11-12T14:53:49.175Z,11.47
2018-11-12T14:56:16.458Z,11.03
2018-11-12T14:58:43.841Z,10.90
2018-11-12T15:01:11.186Z,10.57
2018-11-12T15:03:38.472Z,11.10
2018-11-12T15:06:06.077Z,11.83
2018-11-12T15:08:33.340Z,10.60
2018-11-12T15:11:00.658Z,11.07
2018-11-12T15:13:28.127Z,10.73
2018-11-12T15:15:55.392Z,10.33
2018-11-12T15:18:22.661Z,11.23
2018-11-12T15:20:50.092Z,11.10
2018-11-12T15:23:17.360Z,10.57
2018-11-12T15:25:44.623Z,10.40
2018-11-12T15:28:12.107Z,11.13
2018-11-12T15:30:39.359Z,9.83
2018-11-12T15:33:06.389Z,10.10
2018-11-12T15:35:33.832Z,10.20
2018-11-12T15:38:01.143Z,10.47
2018-11-12T15:40:28.423Z,10.10
2018-11-12T15:42:55.965Z,10.23
2018-11-12T15:45:24.329Z,10.87
2018-11-12T15:47:51.655Z,10.10
2018-11-12T15:50:26.697Z,9.87
2018-11-12T15:52:54.010Z,9.97
2018-11-12T15:55:21.335Z,10.37
2018-11-12T15:57:48.854Z,10.17
2018-11-12T16:00:16.581Z,11.03
2018-11-12T16:02:43.871Z,11.77
2018-11-12T16:05:11.940Z,11.23
2018-11-12T16:07:39.296Z,11.53
2018-11-12T16:10:10.039Z,11.73
2018-11-12T16:12:37.982Z,11.07
2018-11-12T16:15:05.453Z,11.47
2018-11-12T16:17:32.756Z,11.10
2018-11-12T16:20:00.153Z,10.93
2018-11-12T16:22:27.426Z,10.53
2018-11-12T16:24:54.695Z,10.07
2018-11-12T16:27:22.135Z,10.33
2018-11-12T16:29:49.429Z,11.50
2018-11-12T16:32:16.703Z,12.23
2018-11-12T16:34:44.110Z,11.03
2018-11-12T16:37:11.355Z,10.63
2018-11-12T16:39:38.679Z,11.40
2018-11-12T16:42:06.170Z,11.63
2018-11-12T16:44:34.288Z,11.47
2018-11-12T16:47:01.603Z,10.97
2018-11-12T16:49:28.969Z,9.23
2018-11-12T16:51:56.227Z,8.90
2018-11-12T16:54:23.519Z,8.50
2018-11-12T16:56:50.911Z,8.20
2018-11-12T16:59:18.242Z,9.30
2018-11-12T17:01:45.533Z,9.23
2018-11-12T17:04:12.958Z,9.30
2018-11-12T17:06:40.202Z,9.30
2018-11-12T17:09:09.831Z,8.17
2018-11-12T17:11:37.257Z,8.93
2018-11-12T17:14:04.704Z,9.33
2018-11-12T17:19:07.130Z,11.03
2018-11-12T17:21:34.443Z,8.90
2018-11-12T17:24:01.670Z,9.50
2018-11-12T17:29:22.259Z,9.20
2018-11-12T17:31:49.567Z,9.23
2018-11-12T17:34:16.823Z,10.13
2018-11-12T17:36:44.212Z,10.83
2018-11-12T17:39:18.207Z,11.37
2018-11-12T17:41:45.473Z,11.40
2018-11-12T17:44:12.728Z,11.50
2018-11-12T17:46:40.103Z,12.93
2018-11-12T17:49:07.338Z,12.53
2018-11-12T17:51:34.655Z,12.27
2018-11-12T17:54:01.924Z,13.30
2018-11-12T17:56:29.205Z,14.10
2018-11-12T17:58:56.473Z,14.73
2018-11-12T18:01:23.845Z,14.07
2018-11-12T18:03:51.436Z,16.23
2018-11-12T18:06:18.702Z,17.67
2018-11-12T18:08:46.114Z,17.80
2018-11-12T18:11:13.395Z,18.03
2018-11-12T18:13:40.673Z,20.23
2018-11-12T18:16:08.078Z,22.03
2018-11-12T18:18:35.307Z,23.97
2018-11-12T18:21:02.525Z,22.07
2018-11-12T18:23:29.782Z,26.30
2018-11-12T18:25:57.030Z,27.30
2018-11-12T18:28:24.294Z,29.07
2018-11-12T18:30:51.824Z,30.37
2018-11-12T18:33:18.871Z,29.17
2018-11-12T18:35:46.129Z,33.77
2018-11-12T18:38:13.541Z,37.13
2018-11-12T18:40:40.761Z,37.03
2018-11-12T18:43:08.015Z,37.80
2018-11-12T18:45:35.367Z,39.67
2018-11-12T18:48:02.924Z,41.17
2018-11-12T18:50:31.123Z,41.17
2018-11-12T18:52:58.583Z,41.10
2018-11-12T18:55:25.839Z,44.50
2018-11-12T18:57:53.492Z,45.90
2018-11-12T19:00:21.981Z,45.10
2018-11-12T19:02:50.170Z,44.43
2018-11-12T19:05:18.799Z,45.53
2018-11-12T19:07:47.355Z,45.23
2018-11-12T19:10:15.814Z,47.47
2018-11-12T19:12:43.918Z,46.10
2018-11-12T19:15:13.649Z,47.83
2018-11-12T19:17:41.534Z,49.60
2018-11-12T19:20:08.807Z,48.93
2018-11-12T19:22:36.299Z,49.40
2018-11-12T19:25:03.777Z,51.40
2018-11-12T19:27:31.375Z,50.10
2018-11-12T19:29:59.147Z,50.27
2018-11-12T19:32:26.778Z,52.23
2018-11-12T19:34:53.992Z,53.27
2018-11-12T19:37:21.383Z,51.57
2018-11-12T19:39:48.599Z,50.77
2018-11-12T19:42:15.839Z,52.27
2018-11-12T19:44:43.212Z,52.53
2018-11-12T19:47:10.478Z,52.93
2018-11-12T19:49:37.774Z,52.37
2018-11-12T19:52:05.167Z,51.70
2018-11-12T19:54:32.403Z,51.60
2018-11-12T19:56:59.682Z,61.18
2018-11-12T19:59:27.049Z,51.87
2018-11-12T20:01:54.363Z,47.97
2018-11-12T20:04:21.662Z,49.67
2018-11-12T20:06:49.154Z,45.80
2018-11-12T20:09:16.452Z,46.43
2018-11-12T20:11:43.711Z,45.40
2018-11-12T20:14:11.051Z,44.87
2018-11-12T20:16:38.307Z,44.70
2018-11-12T20:19:05.629Z,43.43
2018-11-12T20:21:32.862Z,40.93
2018-11-12T20:24:00.100Z,41.50
2018-11-12T20:26:27.337Z,40.80
2018-11-12T20:28:54.695Z,41.33
2018-11-12T20:31:21.946Z,38.63
2018-11-12T20:33:49.173Z,38.57
2018-11-12T20:36:16.523Z,37.07
2018-11-12T20:38:43.818Z,38.53
2018-11-12T20:41:10.990Z,37.70
2018-11-12T20:43:38.320Z,35.57
2018-11-12T20:46:05.860Z,37.67
2018-11-12T20:48:33.084Z,36.07
2018-11-12T20:51:00.476Z,35.37
2018-11-12T20:53:27.702Z,37.00
2018-11-12T20:55:54.930Z,36.90
2018-11-12T20:58:22.281Z,38.77
2018-11-12T21:00:49.503Z,38.50
2018-11-12T21:03:16.722Z,38.87
2018-11-12T21:05:44.079Z,41.37
2018-11-12T21:08:11.295Z,42.00
2018-11-12T21:10:38.524Z,40.43
2018-11-12T21:13:05.883Z,40.63
2018-11-12T21:15:33.102Z,38.73
2018-11-12T21:18:00.334Z,42.00
2018-11-12T21:20:27.830Z,41.47
2018-11-12T21:22:55.463Z,41.27
2018-11-12T21:25:23.929Z,41.70
2018-11-12T21:27:51.355Z,43.83
2018-11-12T21:30:21.676Z,45.23
2018-11-12T21:32:49.015Z,43.77
2018-11-12T21:35:16.488Z,42.57
2018-11-12T21:37:43.865Z,43.80
2018-11-12T21:40:13.527Z,43.53
2018-11-12T21:42:40.883Z,44.67
2018-11-12T21:45:09.686Z,43.33
2018-11-12T21:47:37.359Z,42.17
2018-11-12T21:50:06.873Z,43.80
2018-11-12T21:52:34.082Z,45.63
2018-11-12T21:55:01.349Z,48.10
2018-11-12T21:57:28.719Z,46.97
2018-11-12T21:59:55.974Z,49.40
2018-11-12T22:02:23.254Z,49.50
2018-11-12T22:04:50.661Z,49.67
2018-11-12T22:07:17.903Z,52.50
2018-11-12T22:09:45.169Z,50.60
2018-11-12T22:12:12.496Z,47.40
2018-11-12T22:14:39.744Z,37.80
2018-11-12T22:17:06.973Z,36.43
2018-11-12T22:19:34.527Z,38.43
2018-11-12T22:22:01.609Z,38.80
2018-11-12T22:24:28.895Z,36.10
2018-11-12T22:26:56.244Z,38.07
2018-11-12T22:29:23.478Z,40.60
2018-11-12T22:31:50.724Z,40.40
2018-11-12T22:34:18.097Z,37.70
2018-11-12T22:36:45.444Z,32.00
2018-11-12T22:39:12.628Z,32.80
2018-11-12T22:41:39.968Z,30.33
2018-11-12T22:44:07.226Z,28.47
2018-11-12T22:46:34.508Z,26.80
2018-11-12T22:49:01.904Z,25.07
2018-11-12T22:51:29.130Z,20.17
2018-11-12T22:53:56.380Z,23.77
2018-11-12T22:56:23.614Z,22.27
2018-11-12T22:58:50.837Z,21.67
2018-11-12T23:01:18.082Z,15.93
2018-11-12T23:03:45.431Z,13.43
2018-11-12T23:06:12.758Z,13.73
2018-11-12T23:08:40.874Z,13.40
2018-11-12T23:11:08.301Z,14.97
2018-11-12T23:13:35.540Z,16.67
2018-11-12T23:16:02.789Z,15.83
2018-11-12T23:18:30.054Z,15.70
2018-11-12T23:20:57.302Z,16.87
2018-11-12T23:23:24.541Z,15.40
2018-11-12T23:25:51.907Z,13.27
2018-11-12T23:28:19.139Z,11.80
2018-11-12T23:30:46.401Z,10.03
2018-11-12T23:33:13.876Z,11.70
2018-11-12T23:35:41.090Z,10.50
2018-11-12T23:38:08.320Z,9.37
2018-11-12T23:40:35.692Z,10.00
2018-11-12T23:43:02.964Z,7.90
2018-11-12T23:45:30.206Z,6.57
2018-11-12T23:47:57.545Z,5.63
2018-11-12T23:50:24.829Z,6.80
2018-11-12T23:52:52.550Z,6.00
2018-11-12T23:55:20.127Z,6.10
2018-11-12T23:57:47.990Z,6.90
